Iberica Hav — C6YI3 — position and weather

sailwx.info

Track history (hours):
 
Tides and Currents Weather Stations Pressure Air Temp Water Temp Dewpoint Dewpoint Depression Visibility Wind Speed Wind Dir Waves Ship Positions

Iberica Hav

Last reported at 2017-Jun-22 20:21 UTC. Time now 2017-Jun-23 22:24 UTC.
Position N 53°20' E 007°10'.

Length 88 m; draft 3.9 m.

Type: Cargo ship. MMSI: 311034400.

Date/timePositionNaut miles runAvg speedWind from/ knotsBaromVisibWave heightAir tempDewpointWater temp
2017-Jun-22 20:21N 53°20' E 007°10'3 7.4
2017-Jun-22 20:00N 53°20' E 007°05'3 6.6
2017-Jun-22 19:30N 53°20' E 006°60'4 7.0
2017-Jun-22 19:00N 53°23' E 006°58'4 7.2
2017-Jun-22 18:30N 53°26' E 006°55'63 8.9
2017-Jun-22 11:23N 53°29' E 005°09'3 7.9
2017-Jun-22 11:00N 53°28' E 005°04'4 7.9
2017-Jun-22 10:29N 53°27' E 004°58'5 8.1
2017-Jun-22 09:48N 53°25' E 004°49'17 7.8
2017-Jun-22 07:41N 53°11' E 004°33'3 8.4
2017-Jun-22 07:17N 53°08' E 004°30'3 8.5
2017-Jun-22 06:55N 53°06' E 004°28'5 8.6
2017-Jun-22 06:20N 53°01' E 004°24'4 8.8
2017-Jun-22 05:56N 52°58' E 004°21'4 8.9
2017-Jun-22 05:30N 52°55' E 004°18'5 9.0
2017-Jun-22 05:00N 52°51' E 004°14'5 9.1
2017-Jun-22 04:27N 52°47' E 004°09'6 9.4
2017-Jun-22 03:50N 52°43' E 004°03'4 9.6
2017-Jun-22 03:27N 52°40' E 003°59'5 9.8
2017-Jun-22 02:58N 52°36' E 003°54'5 9.7
2017-Jun-22 02:26N 52°32' E 003°48'8 9.9
2017-Jun-22 01:40N 52°27' E 003°39'67 9.5
2017-Jun-21 18:36N 51°37' E 002°27'1 7.3
2017-Jun-21 18:29N 51°36' E 002°27'4 7.1
2017-Jun-21 17:59N 51°33' E 002°23'3 7.0
2017-Jun-21 17:30N 51°30' E 002°20'3 7.0
2017-Jun-21 17:01N 51°28' E 002°17'3 6.8
2017-Jun-21 16:30N 51°25' E 002°14'4 7.2
2017-Jun-21 16:00N 51°22' E 002°10'4 7.5
2017-Jun-21 15:30N 51°19' E 002°08'4 7.7
2017-Jun-21 15:00N 51°16' E 002°04'4 7.7
2017-Jun-21 14:30N 51°13' E 001°60'8 8.2
2017-Jun-21 13:30N 51°07' E 001°50'4 8.5
2017-Jun-21 13:00N 51°04' E 001°45'4 8.9
2017-Jun-21 12:30N 51°01' E 001°40'10 9.9
2017-Jun-21 11:31N 50°54' E 001°29'310.5
2017-Jun-21 11:16N 50°52' E 001°26'72 9.8
2017-Jun-21 03:54N 50°18' W 000°14'21 9.1
2017-Jun-21 01:38N 50°12' W 000°45'1 7.9
2017-Jun-21 01:30N 50°12' W 000°47'4 7.6
2017-Jun-21 00:59N 50°11' W 000°53'3 7.1
2017-Jun-21 00:30N 50°10' W 000°58'3 6.7
2017-Jun-21 00:00N 50°09' W 001°03'4 6.4
2017-Jun-20 23:26N 50°08' W 001°08'12 6.2
2017-Jun-20 21:27N 50°04' W 001°27'7 7.2
2017-Jun-20 20:24N 50°02' W 001°38'5 8.2
2017-Jun-20 19:51N 50°01' W 001°44'3 9.0
2017-Jun-20 19:30N 49°60' W 001°49'5 9.6
2017-Jun-20 19:00N 49°58' W 001°56'510.2
2017-Jun-20 18:30N 49°57' W 002°04'510.5
2017-Jun-20 18:00N 49°55' W 002°12'610.8
2017-Jun-20 17:28N 49°54' W 002°20'1110.7
2017-Jun-20 16:26N 49°51' W 002°37'510.6
2017-Jun-20 16:00N 49°49' W 002°44'510.4
2017-Jun-20 15:30N 49°48' W 002°51'510.2
2017-Jun-20 15:00N 49°46' W 002°58'5 9.9
2017-Jun-20 14:30N 49°43' W 003°05'10 9.8
2017-Jun-20 13:31N 49°39' W 003°18'5 9.6
2017-Jun-20 13:00N 49°36' W 003°25'5 9.5
2017-Jun-20 12:30N 49°34' W 003°31'82 8.3
2017-Jun-20 02:38N 48°52' W 005°19'1 8.9
2017-Jun-20 02:30N 48°51' W 005°20'  
Track history (hours):
 
Tides and Currents Weather Stations Pressure Air Temp Water Temp Dewpoint Dewpoint Depression Visibility Wind Speed Wind Dir Waves Ship Positions

Iberica Hav

Last reported at 2017-Jun-22 20:21 UTC. Time now 2017-Jun-23 22:24 UTC.
Position N 53°20' E 007°10'.

Length 88 m; draft 3.9 m.

Type: Cargo ship. MMSI: 311034400.

Date/timePositionNaut miles runAvg speedWind from/ knotsBaromVisibWave heightAir tempDewpointWater temp
2017-Jun-22 20:21N 53°20' E 007°10'3 7.4
2017-Jun-22 20:00N 53°20' E 007°05'3 6.6
2017-Jun-22 19:30N 53°20' E 006°60'4 7.0
2017-Jun-22 19:00N 53°23' E 006°58'4 7.2
2017-Jun-22 18:30N 53°26' E 006°55'63 8.9
2017-Jun-22 11:23N 53°29' E 005°09'3 7.9
2017-Jun-22 11:00N 53°28' E 005°04'4 7.9
2017-Jun-22 10:29N 53°27' E 004°58'5 8.1
2017-Jun-22 09:48N 53°25' E 004°49'17 7.8
2017-Jun-22 07:41N 53°11' E 004°33'3 8.4
2017-Jun-22 07:17N 53°08' E 004°30'3 8.5
2017-Jun-22 06:55N 53°06' E 004°28'5 8.6
2017-Jun-22 06:20N 53°01' E 004°24'4 8.8
2017-Jun-22 05:56N 52°58' E 004°21'4 8.9
2017-Jun-22 05:30N 52°55' E 004°18'5 9.0
2017-Jun-22 05:00N 52°51' E 004°14'5 9.1
2017-Jun-22 04:27N 52°47' E 004°09'6 9.4
2017-Jun-22 03:50N 52°43' E 004°03'4 9.6
2017-Jun-22 03:27N 52°40' E 003°59'5 9.8
2017-Jun-22 02:58N 52°36' E 003°54'5 9.7
2017-Jun-22 02:26N 52°32' E 003°48'8 9.9
2017-Jun-22 01:40N 52°27' E 003°39'67 9.5
2017-Jun-21 18:36N 51°37' E 002°27'1 7.3
2017-Jun-21 18:29N 51°36' E 002°27'4 7.1
2017-Jun-21 17:59N 51°33' E 002°23'3 7.0
2017-Jun-21 17:30N 51°30' E 002°20'3 7.0
2017-Jun-21 17:01N 51°28' E 002°17'3 6.8
2017-Jun-21 16:30N 51°25' E 002°14'4 7.2
2017-Jun-21 16:00N 51°22' E 002°10'4 7.5
2017-Jun-21 15:30N 51°19' E 002°08'4 7.7
2017-Jun-21 15:00N 51°16' E 002°04'4 7.7
2017-Jun-21 14:30N 51°13' E 001°60'8 8.2
2017-Jun-21 13:30N 51°07' E 001°50'4 8.5
2017-Jun-21 13:00N 51°04' E 001°45'4 8.9
2017-Jun-21 12:30N 51°01' E 001°40'10 9.9
2017-Jun-21 11:31N 50°54' E 001°29'310.5
2017-Jun-21 11:16N 50°52' E 001°26'72 9.8
2017-Jun-21 03:54N 50°18' W 000°14'21 9.1
2017-Jun-21 01:38N 50°12' W 000°45'1 7.9
2017-Jun-21 01:30N 50°12' W 000°47'4 7.6
2017-Jun-21 00:59N 50°11' W 000°53'3 7.1
2017-Jun-21 00:30N 50°10' W 000°58'3 6.7
2017-Jun-21 00:00N 50°09' W 001°03'4 6.4
2017-Jun-20 23:26N 50°08' W 001°08'12 6.2
2017-Jun-20 21:27N 50°04' W 001°27'7 7.2
2017-Jun-20 20:24N 50°02' W 001°38'5 8.2
2017-Jun-20 19:51N 50°01' W 001°44'3 9.0
2017-Jun-20 19:30N 49°60' W 001°49'5 9.6
2017-Jun-20 19:00N 49°58' W 001°56'510.2
2017-Jun-20 18:30N 49°57' W 002°04'510.5
2017-Jun-20 18:00N 49°55' W 002°12'610.8
2017-Jun-20 17:28N 49°54' W 002°20'1110.7
2017-Jun-20 16:26N 49°51' W 002°37'510.6
2017-Jun-20 16:00N 49°49' W 002°44'510.4
2017-Jun-20 15:30N 49°48' W 002°51'510.2
2017-Jun-20 15:00N 49°46' W 002°58'5 9.9
2017-Jun-20 14:30N 49°43' W 003°05'10 9.8
2017-Jun-20 13:31N 49°39' W 003°18'5 9.6
2017-Jun-20 13:00N 49°36' W 003°25'5 9.5
2017-Jun-20 12:30N 49°34' W 003°31'82 8.3
2017-Jun-20 02:38N 48°52' W 005°19'1 8.9
2017-Jun-20 02:30N 48°51' W 005°20'  

Dump ship's entire track history